Time;durP1;ratioP1;P1;durP2;ratioP2;P2;SDS_P1;SDS_P2;PMS_P1;PMS_P2;Temp;Humidity;BMP_temperature;BMP_pressure;BME280_temperature;BME280_humidity;BME280_pressure;Samples;Min_cycle;Max_cycle;Signal;HPM_P1;HPM_P2
2022/12/10 00:00:04;;;;;;;17.92;14.80;;;10.00;99.90;;;;;;5092908;28;20055;-67
2022/12/10 00:02:29;;;;;;;18.15;15.05;;;10.10;99.90;;;;;;5092997;28;20048;-66
2022/12/10 00:04:55;;;;;;;19.52;14.95;;;10.10;99.90;;;;;;5092742;28;20071;-66
2022/12/10 00:07:21;;;;;;;24.75;18.17;;;10.10;99.90;;;;;;5092860;28;20139;-66
2022/12/10 00:09:46;;;;;;;25.00;17.20;;;10.10;99.90;;;;;;5093023;28;20040;-67
2022/12/10 00:12:12;;;;;;;22.63;16.17;;;10.10;99.90;;;;;;5092947;28;20067;-66
2022/12/10 00:14:38;;;;;;;21.77;16.13;;;10.10;99.90;;;;;;5093018;28;20036;-65
2022/12/10 00:17:03;;;;;;;21.93;16.97;;;10.10;99.90;;;;;;5092751;28;20115;-67
2022/12/10 00:19:29;;;;;;;20.52;15.57;;;10.10;99.90;;;;;;5092792;28;20086;-66
2022/12/10 00:21:55;;;;;;;16.55;14.25;;;10.10;99.90;;;;;;5097139;28;20028;-67
2022/12/10 00:24:20;;;;;;;18.40;13.07;;;10.10;99.90;;;;;;5096994;28;20466;-67
2022/12/10 00:26:46;;;;;;;24.70;15.57;;;10.10;99.90;;;;;;5097029;28;20040;-66
2022/12/10 00:29:12;;;;;;;19.17;13.97;;;10.10;99.90;;;;;;5096984;28;20482;-66
2022/12/10 00:31:39;;;;;;;19.42;15.10;;;10.10;99.90;;;;;;5096697;28;20036;-67
2022/12/10 00:34:07;;;;;;;19.33;15.05;;;10.10;99.90;;;;;;5096415;28;20059;-66
2022/12/10 00:36:36;;;;;;;23.42;14.70;;;10.20;99.90;;;;;;5096659;28;20036;-67
2022/12/10 00:39:03;;;;;;;20.80;15.88;;;10.10;99.90;;;;;;5096756;28;20080;-66
2022/12/10 00:41:29;;;;;;;14.82;12.77;;;10.20;99.90;;;;;;5096709;28;20063;-66
2022/12/10 00:43:55;;;;;;;20.00;14.90;;;10.10;99.90;;;;;;5096585;28;20130;-66
2022/12/10 00:46:20;;;;;;;18.17;14.95;;;10.10;99.90;;;;;;5096558;28;20070;-67
2022/12/10 00:48:46;;;;;;;21.38;13.45;;;10.10;99.90;;;;;;5096883;28;20036;-66
2022/12/10 00:51:13;;;;;;;18.00;14.00;;;10.10;99.90;;;;;;5096667;28;20032;-66
2022/12/10 00:53:42;;;;;;;16.75;13.77;;;10.20;99.90;;;;;;5096188;28;20060;-66
2022/12/10 00:56:10;;;;;;;18.58;15.35;;;10.20;99.90;;;;;;5096447;28;20043;-67
2022/12/10 00:58:37;;;;;;;18.73;14.65;;;10.10;99.90;;;;;;5096262;28;20048;-67
2022/12/10 01:01:20;;;;;;;17.48;14.52;;;10.20;99.90;;;;;;5096093;28;20048;-66
2022/12/10 01:03:48;;;;;;;17.08;14.10;;;10.10;99.90;;;;;;5096441;28;20036;-67
2022/12/10 01:06:17;;;;;;;17.17;15.00;;;10.20;99.90;;;;;;5095981;28;20107;-67
2022/12/10 01:08:44;;;;;;;15.27;13.02;;;10.20;99.90;;;;;;5096063;28;20032;-66
2022/12/10 01:11:12;;;;;;;18.45;15.27;;;10.10;99.90;;;;;;5095804;28;20029;-66
2022/12/10 01:13:38;;;;;;;17.35;14.30;;;10.20;99.90;;;;;;5096274;28;20036;-67
2022/12/10 01:16:05;;;;;;;16.58;14.05;;;10.20;99.90;;;;;;5095856;28;20089;-66
2022/12/10 01:18:31;;;;;;;16.35;14.20;;;10.10;99.90;;;;;;5095861;28;20044;-67
2022/12/10 01:21:05;;;;;;;19.20;14.75;;;10.10;99.90;;;;;;5095864;28;20035;-67
2022/12/10 01:23:37;;;;;;;16.13;12.73;;;10.20;99.90;;;;;;5095661;28;20036;-67
2022/12/10 01:26:05;;;;;;;18.10;12.65;;;10.20;99.90;;;;;;5095656;28;20387;-66
2022/12/10 01:28:33;;;;;;;17.33;13.80;;;10.10;99.90;;;;;;5095749;28;20115;-67
2022/12/10 01:31:04;;;;;;;17.05;12.88;;;10.20;99.90;;;;;;5095346;28;20497;-65
2022/12/10 01:33:30;;;;;;;15.63;13.40;;;10.20;99.90;;;;;;5094957;28;20067;-66
2022/12/10 01:36:01;;;;;;;16.55;13.48;;;10.20;99.90;;;;;;5095627;28;20474;-66
2022/12/10 01:38:26;;;;;;;17.92;13.77;;;10.20;99.90;;;;;;5095335;28;20044;-66
2022/12/10 01:40:52;;;;;;;18.05;13.93;;;10.20;99.90;;;;;;5095203;28;20428;-66
2022/12/10 01:43:18;;;;;;;18.67;14.13;;;10.20;99.90;;;;;;5095646;28;20477;-66
2022/12/10 01:45:43;;;;;;;14.60;12.52;;;10.10;99.90;;;;;;5095714;28;20067;-67
2022/12/10 01:48:10;;;;;;;23.90;14.45;;;10.10;99.90;;;;;;5095574;28;20064;-67
2022/12/10 01:50:36;;;;;;;15.93;11.98;;;10.20;99.90;;;;;;5095270;28;20097;-66
2022/12/10 01:53:02;;;;;;;20.15;14.15;;;10.10;99.90;;;;;;5095172;28;20470;-66
2022/12/10 01:55:57;;;;;;;17.67;13.25;;;10.10;99.90;;;;;;5095118;28;20478;-67
2022/12/10 01:58:23;;;;;;;19.38;14.18;;;10.10;99.90;;;;;;5088490;28;20098;-67
2022/12/10 02:01:02;;;;;;;21.30;14.07;;;10.10;99.90;;;;;;5091951;28;20529;-67
2022/12/10 02:04:05;;;;;;;17.23;12.90;;;10.10;99.90;;;;;;5092105;28;20040;-67
2022/12/10 02:07:01;;;;;;;23.55;13.63;;;10.10;99.90;;;;;;5094564;28;20043;-67
2022/12/10 02:09:52;;;;;;;20.80;14.20;;;10.00;99.90;;;;;;5092159;28;20032;-67
2022/12/10 02:12:48;;;;;;;20.40;14.07;;;10.00;99.90;;;;;;5094770;28;20036;-67
2022/12/10 02:15:31;;;;;;;18.20;14.05;;;10.00;99.90;;;;;;5094477;28;20089;-68
2022/12/10 02:18:06;;;;;;;22.48;15.35;;;10.00;99.90;;;;;;5094452;28;20048;-66
2022/12/10 02:21:00;;;;;;;23.38;16.35;;;10.00;99.90;;;;;;5094300;28;20062;-67
2022/12/10 02:23:32;;;;;;;23.77;16.50;;;10.00;99.90;;;;;;5093310;28;20446;-67
2022/12/10 02:26:32;;;;;;;32.45;20.63;;;10.00;99.90;;;;;;5094646;28;20432;-66
2022/12/10 02:29:15;;;;;;;39.25;22.20;;;10.00;99.90;;;;;;5094353;28;20028;-67
2022/12/10 02:31:45;;;;;;;33.47;22.83;;;10.00;99.90;;;;;;5094396;28;20028;-66
2022/12/10 02:34:12;;;;;;;37.90;24.15;;;10.00;99.90;;;;;;5094470;28;20142;-67
2022/12/10 02:36:41;;;;;;;38.25;23.77;;;10.00;99.90;;;;;;5093950;28;20032;-66
2022/12/10 02:39:11;;;;;;;34.28;23.17;;;10.00;99.90;;;;;;5094288;28;20389;-67
2022/12/10 02:41:51;;;;;;;42.85;24.95;;;10.00;99.90;;;;;;5094374;28;20029;-66
2022/12/10 02:44:18;;;;;;;45.05;25.63;;;10.00;99.90;;;;;;5094026;28;20482;-66
2022/12/10 02:46:47;;;;;;;59.47;28.75;;;10.00;99.90;;;;;;5093973;28;20036;-66
2022/12/10 02:49:15;;;;;;;68.63;29.13;;;10.00;99.90;;;;;;5093763;28;20082;-66
2022/12/10 02:51:41;;;;;;;57.90;30.95;;;10.00;99.90;;;;;;5093935;28;20089;-67
2022/12/10 02:54:45;;;;;;;49.47;28.27;;;10.00;99.90;;;;;;5094126;28;20024;-66
2022/12/10 02:57:30;;;;;;;41.65;26.60;;;10.00;99.90;;;;;;5093861;28;20036;-66
2022/12/10 03:00:15;;;;;;;43.50;27.00;;;10.00;99.90;;;;;;5093788;28;20408;-66
2022/12/10 03:03:14;;;;;;;85.18;33.03;;;10.00;99.90;;;;;;5093825;28;20032;-67
2022/12/10 03:06:07;;;;;;;50.60;31.25;;;10.00;99.90;;;;;;5094033;28;20469;-66
2022/12/10 03:08:52;;;;;;;56.55;31.88;;;10.00;99.90;;;;;;5093989;28;20085;-67
2022/12/10 03:11:21;;;;;;;55.08;30.52;;;10.00;99.90;;;;;;5093834;28;20029;-66
2022/12/10 03:13:55;;;;;;;59.53;31.13;;;10.00;99.90;;;;;;5093838;28;20032;-66
2022/12/10 03:16:22;;;;;;;44.17;28.67;;;10.00;99.90;;;;;;5093609;28;20505;-67
2022/12/10 03:18:54;;;;;;;44.97;28.00;;;10.00;99.90;;;;;;5093577;28;20123;-67
2022/12/10 03:21:21;;;;;;;42.17;27.95;;;10.00;99.90;;;;;;5093602;28;20489;-67
2022/12/10 03:23:48;;;;;;;45.97;27.08;;;10.00;99.90;;;;;;5093543;28;20588;-67
2022/12/10 03:26:15;;;;;;;43.53;27.45;;;10.00;99.90;;;;;;5093683;28;20070;-66
2022/12/10 03:28:49;;;;;;;40.00;25.63;;;10.00;99.90;;;;;;5093458;28;20470;-67
2022/12/10 03:31:17;;;;;;;46.47;28.08;;;10.00;99.90;;;;;;5093604;28;20032;-67
2022/12/10 03:33:44;;;;;;;43.53;27.77;;;10.00;99.90;;;;;;5093460;28;20020;-67
2022/12/10 03:36:11;;;;;;;46.75;28.55;;;10.00;99.90;;;;;;5093348;28;20031;-66
2022/12/10 03:38:38;;;;;;;57.97;32.50;;;10.00;99.90;;;;;;5093429;28;20064;-66
2022/12/10 03:41:04;;;;;;;59.13;33.85;;;10.00;99.90;;;;;;5093204;28;20067;-66
2022/12/10 03:43:29;;;;;;;69.25;35.97;;;10.00;99.90;;;;;;5093242;28;20059;-66
2022/12/10 03:45:55;;;;;;;59.58;33.83;;;10.00;99.90;;;;;;5092893;28;20024;-66
2022/12/10 03:48:21;;;;;;;57.63;32.97;;;10.00;99.90;;;;;;5093330;28;20103;-67
2022/12/10 03:50:46;;;;;;;56.38;32.75;;;10.00;99.90;;;;;;5093293;28;20059;-66
2022/12/10 03:53:12;;;;;;;54.67;30.92;;;10.00;99.90;;;;;;5093224;28;20093;-67
2022/12/10 03:55:38;;;;;;;51.25;30.25;;;10.00;99.90;;;;;;5092642;28;20028;-66
2022/12/10 03:58:04;;;;;;;55.42;30.23;;;10.00;99.90;;;;;;5092613;28;20577;-67
2022/12/10 04:00:29;;;;;;;56.67;31.58;;;10.00;99.90;;;;;;5092748;28;20119;-66
2022/12/10 04:02:55;;;;;;;54.35;31.60;;;10.00;99.90;;;;;;5092843;28;20101;-67
2022/12/10 04:05:21;;;;;;;56.05;30.27;;;10.00;99.90;;;;;;5093087;28;20494;-66
2022/12/10 04:07:47;;;;;;;51.30;29.48;;;10.00;99.90;;;;;;5092793;28;20054;-67
2022/12/10 04:10:12;;;;;;;55.95;34.00;;;10.00;99.90;;;;;;5093037;28;20020;-67
2022/12/10 04:12:38;;;;;;;50.53;30.52;;;10.00;99.90;;;;;;5092811;28;20509;-67
2022/12/10 04:17:49;;;;;;;46.67;26.48;;;10.00;99.90;;;;;;5092735;28;20102;-66
2022/12/10 04:28:27;;;;;;;31.83;20.65;;;10.00;99.90;;;;;;5092676;28;20086;-66
2022/12/10 04:30:53;;;;;;;35.00;20.88;;;10.00;99.90;;;;;;5092901;28;20032;-66
2022/12/10 04:33:18;;;;;;;38.47;20.77;;;10.00;99.90;;;;;;5092657;28;20094;-67
2022/12/10 04:35:44;;;;;;;36.53;20.55;;;10.00;99.90;;;;;;5092973;28;20435;-67
2022/12/10 04:38:09;;;;;;;40.97;20.95;;;10.00;99.90;;;;;;5092844;28;20044;-67
2022/12/10 04:40:35;;;;;;;35.13;19.73;;;10.00;99.90;;;;;;5092612;28;20036;-66
2022/12/10 04:43:01;;;;;;;35.20;18.88;;;10.00;99.90;;;;;;5092701;28;20032;-66
2022/12/10 04:45:26;;;;;;;35.15;19.48;;;10.00;99.90;;;;;;5092767;28;20093;-67
2022/12/10 04:47:52;;;;;;;33.80;18.65;;;10.00;99.90;;;;;;5092829;28;20044;-65
2022/12/10 04:50:18;;;;;;;33.40;18.25;;;10.00;99.90;;;;;;5092564;28;20039;-66
2022/12/10 04:52:43;;;;;;;32.50;17.52;;;10.00;99.90;;;;;;5092610;28;20542;-66
2022/12/10 04:55:09;;;;;;;28.23;17.13;;;10.10;99.90;;;;;;5092829;28;20028;-67
2022/12/10 04:57:35;;;;;;;31.13;16.08;;;10.00;99.90;;;;;;5092656;28;20048;-66
2022/12/10 05:00:00;;;;;;;31.15;17.33;;;10.10;99.90;;;;;;5092335;28;20086;-67
2022/12/10 05:02:26;;;;;;;34.75;18.80;;;10.10;99.90;;;;;;5092596;28;20060;-64
2022/12/10 05:04:52;;;;;;;33.67;18.30;;;10.10;99.90;;;;;;5092286;28;20033;-66
2022/12/10 05:07:17;;;;;;;38.40;22.40;;;10.10;99.90;;;;;;5093882;28;20043;-66
2022/12/10 05:09:43;;;;;;;40.75;23.15;;;10.10;99.90;;;;;;5096454;28;20116;-66
2022/12/10 05:12:09;;;;;;;39.80;22.98;;;10.10;99.90;;;;;;5096267;28;20056;-66
2022/12/10 05:14:34;;;;;;;37.05;21.98;;;10.10;99.90;;;;;;5095804;28;20085;-66
2022/12/10 05:17:00;;;;;;;38.47;22.67;;;10.10;99.90;;;;;;5095836;28;20031;-66
2022/12/10 05:19:26;;;;;;;43.67;23.30;;;10.10;99.90;;;;;;5095888;28;20040;-66
2022/12/10 05:24:36;;;;;;;45.13;24.85;;;10.10;99.90;;;;;;5096113;28;20405;-66
2022/12/10 05:27:02;;;;;;;50.38;26.77;;;10.10;99.90;;;;;;5095672;28;20095;-66
2022/12/10 05:29:28;;;;;;;53.55;28.05;;;10.10;99.90;;;;;;5095753;28;20485;-66
2022/12/10 05:31:54;;;;;;;56.67;27.90;;;10.00;99.90;;;;;;5095611;28;20398;-66
2022/12/10 05:34:20;;;;;;;55.17;27.38;;;10.00;99.90;;;;;;5095640;28;20035;-67
2022/12/10 05:36:45;;;;;;;48.15;25.48;;;10.00;99.90;;;;;;5095753;28;20477;-65
2022/12/10 05:39:11;;;;;;;49.90;26.70;;;10.00;99.90;;;;;;5095366;28;20047;-66
2022/12/10 05:41:39;;;;;;;55.63;28.27;;;10.00;99.90;;;;;;5095540;28;20040;-66
2022/12/10 05:44:05;;;;;;;60.53;29.80;;;10.00;99.90;;;;;;5095812;28;20398;-67
2022/12/10 05:46:33;;;;;;;49.50;28.40;;;10.00;99.90;;;;;;5095628;28;20028;-67
2022/12/10 05:49:00;;;;;;;55.63;29.42;;;10.00;99.90;;;;;;5095622;28;20040;-66
2022/12/10 05:51:30;;;;;;;53.42;28.20;;;10.00;99.90;;;;;;5095183;28;20481;-66
2022/12/10 05:53:57;;;;;;;52.53;29.48;;;10.00;99.90;;;;;;5095328;28;20055;-67
2022/12/10 05:56:24;;;;;;;54.00;27.08;;;10.00;99.90;;;;;;5095503;28;20474;-66
2022/12/10 05:58:52;;;;;;;47.78;26.33;;;10.00;99.90;;;;;;5095121;28;20040;-66
2022/12/10 06:01:24;;;;;;;49.70;27.08;;;10.00;99.90;;;;;;5095125;28;20070;-66
2022/12/10 06:03:52;;;;;;;53.10;27.00;;;10.00;99.90;;;;;;5095026;28;20070;-66
2022/12/10 06:06:24;;;;;;;48.35;25.95;;;10.00;99.90;;;;;;5095109;28;20520;-66
2022/12/10 06:08:51;;;;;;;50.80;26.58;;;10.00;99.90;;;;;;5094880;28;20154;-67
2022/12/10 06:11:18;;;;;;;50.72;25.65;;;10.00;99.90;;;;;;5094940;28;20470;-66
2022/12/10 06:13:44;;;;;;;50.95;26.52;;;10.00;99.90;;;;;;5094680;28;20036;-66
2022/12/10 06:16:13;;;;;;;50.40;25.65;;;10.00;99.90;;;;;;5095075;28;20117;-66
2022/12/10 06:18:39;;;;;;;45.72;24.27;;;10.00;99.90;;;;;;5094383;28;20040;-67
2022/12/10 06:21:10;;;;;;;42.42;23.45;;;10.00;99.90;;;;;;5094365;28;20090;-67
2022/12/10 06:23:38;;;;;;;40.97;24.20;;;10.00;99.90;;;;;;5094820;28;20120;-66
2022/12/10 06:26:12;;;;;;;39.22;23.30;;;10.00;99.90;;;;;;5094535;28;20028;-67
2022/12/10 06:28:38;;;;;;;57.47;29.45;;;10.00;99.90;;;;;;5094730;28;20502;-66
2022/12/10 06:31:05;;;;;;;50.22;28.30;;;9.90;99.90;;;;;;5094371;28;20136;-67
2022/12/10 06:33:30;;;;;;;46.95;26.48;;;10.00;99.90;;;;;;5094375;28;20067;-67
2022/12/10 06:35:56;;;;;;;44.60;25.02;;;10.00;99.90;;;;;;5094600;28;20486;-66
2022/12/10 06:38:22;;;;;;;43.60;24.52;;;10.00;99.90;;;;;;5094419;28;20044;-66
2022/12/10 06:40:48;;;;;;;39.45;24.80;;;10.00;99.90;;;;;;5094302;28;20047;-66
2022/12/10 06:43:14;;;;;;;43.83;24.65;;;10.00;99.90;;;;;;5094360;28;20051;-66
2022/12/10 06:45:41;;;;;;;43.80;25.00;;;10.00;99.90;;;;;;5094352;28;20032;-66
2022/12/10 06:48:07;;;;;;;41.40;22.95;;;10.00;99.90;;;;;;5094481;28;20035;-66
2022/12/10 06:50:34;;;;;;;37.00;22.33;;;10.00;99.90;;;;;;5094215;28;20398;-67
2022/12/10 06:53:00;;;;;;;42.80;24.08;;;10.00;99.90;;;;;;5093944;28;20028;-67
2022/12/10 06:55:25;;;;;;;51.83;26.17;;;10.00;99.90;;;;;;5094168;28;20043;-66
2022/12/10 06:57:54;;;;;;;43.80;24.15;;;10.00;99.90;;;;;;5094173;28;20051;-67
2022/12/10 07:00:20;;;;;;;49.83;25.83;;;10.00;99.90;;;;;;5093638;28;20051;-67
2022/12/10 07:02:47;;;;;;;47.35;24.80;;;10.00;99.90;;;;;;5093909;28;20089;-67
2022/12/10 07:05:13;;;;;;;53.50;25.25;;;10.00;99.90;;;;;;5094022;28;20060;-67
2022/12/10 07:07:38;;;;;;;53.65;29.38;;;10.00;99.90;;;;;;5094020;28;20048;-67
2022/12/10 07:10:05;;;;;;;74.80;29.80;;;10.00;99.90;;;;;;5094063;28;20036;-66
2022/12/10 07:12:31;;;;;;;52.35;29.50;;;10.00;99.90;;;;;;5093717;28;20486;-66
2022/12/10 07:14:56;;;;;;;53.47;27.23;;;10.00;99.90;;;;;;5093949;28;20032;-66
2022/12/10 07:17:22;;;;;;;50.42;27.70;;;10.00;99.90;;;;;;5093689;28;20051;-66
2022/12/10 07:19:48;;;;;;;80.03;29.63;;;10.00;99.90;;;;;;5093720;28;20032;-67
2022/12/10 07:22:13;;;;;;;97.32;30.27;;;10.00;99.90;;;;;;5093530;28;20035;-66
2022/12/10 07:24:39;;;;;;;51.20;29.27;;;10.00;99.90;;;;;;5093603;28;20032;-66
2022/12/10 07:27:06;;;;;;;70.68;29.73;;;10.00;99.90;;;;;;5093696;28;20106;-66
2022/12/10 07:29:32;;;;;;;97.60;28.33;;;10.00;99.90;;;;;;5092509;28;20040;-66
2022/12/10 07:31:58;;;;;;;62.93;27.57;;;10.00;99.90;;;;;;5093495;28;20039;-65
2022/12/10 07:34:23;;;;;;;60.30;28.40;;;10.00;99.90;;;;;;5093467;28;20489;-66
2022/12/10 07:36:49;;;;;;;117.78;27.60;;;9.90;99.90;;;;;;5092943;28;20024;-65
2022/12/10 07:39:17;;;;;;;53.53;28.58;;;9.90;99.90;;;;;;5092836;28;20047;-66
2022/12/10 07:41:52;;;;;;;105.40;28.25;;;9.90;99.90;;;;;;5093390;28;20029;-66
2022/12/10 07:44:24;;;;;;;49.63;27.10;;;9.90;99.90;;;;;;5093107;28;20055;-66
2022/12/10 07:46:51;;;;;;;60.15;26.38;;;9.90;99.90;;;;;;5093499;28;20111;-67
2022/12/10 07:49:17;;;;;;;43.40;25.83;;;10.00;99.90;;;;;;5093239;28;20043;-67
2022/12/10 07:51:47;;;;;;;41.45;25.25;;;10.00;99.90;;;;;;5092952;28;20036;-66
2022/12/10 07:54:13;;;;;;;44.65;24.17;;;9.90;99.90;;;;;;5093269;28;20039;-66
2022/12/10 07:56:39;;;;;;;42.45;24.95;;;9.90;99.90;;;;;;5093299;28;20032;-67
2022/12/10 07:59:04;;;;;;;40.90;24.15;;;9.90;99.90;;;;;;5092637;28;20055;-67
2022/12/10 08:01:32;;;;;;;46.60;25.90;;;9.90;99.90;;;;;;5092962;28;20055;-66
2022/12/10 08:03:57;;;;;;;41.08;24.67;;;9.90;99.90;;;;;;5093101;28;20040;-66
2022/12/10 08:06:24;;;;;;;40.13;23.77;;;10.00;99.90;;;;;;5093017;28;20036;-66
2022/12/10 08:08:50;;;;;;;42.42;24.23;;;10.00;99.90;;;;;;5092856;28;20389;-66
2022/12/10 08:11:17;;;;;;;37.33;22.52;;;10.00;99.90;;;;;;5092851;28;20024;-66
2022/12/10 08:13:44;;;;;;;35.20;21.85;;;10.00;99.90;;;;;;5092710;28;20039;-66
2022/12/10 08:16:15;;;;;;;37.45;22.90;;;10.00;99.90;;;;;;5092589;28;20036;-66
2022/12/10 08:18:42;;;;;;;38.35;23.98;;;10.00;99.90;;;;;;5092778;28;20405;-65
2022/12/10 08:21:13;;;;;;;44.17;24.45;;;10.00;99.90;;;;;;5092243;28;20497;-67
2022/12/10 08:23:39;;;;;;;45.17;25.23;;;10.00;99.90;;;;;;5092530;28;20028;-67
2022/12/10 08:26:07;;;;;;;48.35;25.65;;;10.00;99.90;;;;;;5092268;28;20045;-67
2022/12/10 08:28:34;;;;;;;54.83;27.40;;;10.10;99.90;;;;;;5092989;28;20537;-66
2022/12/10 08:31:00;;;;;;;55.65;28.67;;;10.10;99.90;;;;;;5091494;28;20032;-67
2022/12/10 08:33:26;;;;;;;54.17;27.63;;;10.10;99.90;;;;;;5092885;28;20086;-67
2022/12/10 08:35:51;;;;;;;53.60;27.90;;;10.10;99.90;;;;;;5092949;28;20502;-66
2022/12/10 08:38:17;;;;;;;51.25;26.90;;;10.10;99.90;;;;;;5092711;28;20059;-64
2022/12/10 08:40:44;;;;;;;54.70;28.25;;;10.10;99.90;;;;;;5092436;28;20111;-67
2022/12/10 08:43:09;;;;;;;54.25;26.55;;;10.10;99.90;;;;;;5096766;28;20060;-67
2022/12/10 08:45:35;;;;;;;48.03;25.67;;;10.10;99.90;;;;;;5096847;28;20465;-67
2022/12/10 08:48:02;;;;;;;43.05;21.92;;;10.10;99.90;;;;;;5096901;28;20047;-67
2022/12/10 08:50:28;;;;;;;36.63;20.65;;;10.10;99.90;;;;;;5096822;28;20122;-67
2022/12/10 08:52:54;;;;;;;36.83;20.75;;;10.10;99.90;;;;;;5096565;28;20031;-67
2022/12/10 08:55:20;;;;;;;32.97;18.50;;;10.10;99.90;;;;;;5096681;28;20036;-67
2022/12/10 08:57:45;;;;;;;31.70;19.20;;;10.10;99.90;;;;;;5096347;28;20047;-66
2022/12/10 09:00:13;;;;;;;42.35;20.73;;;10.20;99.90;;;;;;5096155;28;20127;-66
2022/12/10 09:02:39;;;;;;;31.70;17.08;;;10.20;99.90;;;;;;5096523;28;20040;-67
2022/12/10 09:05:05;;;;;;;32.30;18.27;;;10.20;99.90;;;;;;5096393;28;20492;-66
2022/12/10 09:07:31;;;;;;;37.13;18.77;;;10.20;99.90;;;;;;5095951;28;20038;-67
2022/12/10 09:09:57;;;;;;;29.48;18.17;;;10.20;99.90;;;;;;5096266;28;20028;-66
2022/12/10 09:12:23;;;;;;;28.48;17.75;;;10.20;99.90;;;;;;5096289;28;20107;-66
2022/12/10 09:14:49;;;;;;;28.15;18.13;;;10.20;99.90;;;;;;5096135;28;20132;-66
2022/12/10 09:17:14;;;;;;;36.42;19.83;;;10.20;99.90;;;;;;5096103;28;20032;-66
2022/12/10 09:19:40;;;;;;;34.10;21.33;;;10.20;99.90;;;;;;5095957;28;20044;-66
2022/12/10 09:22:06;;;;;;;32.15;19.52;;;10.30;99.90;;;;;;5096025;28;20547;-66
2022/12/10 09:24:31;;;;;;;33.38;19.98;;;10.30;99.90;;;;;;5096055;28;20420;-67
2022/12/10 09:26:57;;;;;;;29.88;19.40;;;10.30;99.90;;;;;;5095915;28;20056;-67
2022/12/10 09:29:23;;;;;;;28.20;18.65;;;10.30;99.90;;;;;;5095687;28;20071;-66
2022/12/10 09:31:52;;;;;;;28.73;18.38;;;10.30;99.90;;;;;;5095895;28;20107;-67
2022/12/10 09:34:18;;;;;;;32.97;20.35;;;10.30;99.90;;;;;;5095832;28;20115;-66
2022/12/10 09:36:44;;;;;;;30.38;18.23;;;10.40;99.90;;;;;;5095639;28;20067;-67
2022/12/10 09:39:10;;;;;;;22.88;16.70;;;10.40;99.90;;;;;;5095741;28;20085;-67
2022/12/10 09:41:38;;;;;;;19.42;14.23;;;10.40;99.90;;;;;;5095819;28;20037;-66
2022/12/10 09:44:15;;;;;;;16.15;12.38;;;10.40;99.90;;;;;;5095656;28;20587;-67
2022/12/10 09:47:00;;;;;;;16.52;12.45;;;10.40;99.90;;;;;;5095382;28;20039;-67
2022/12/10 09:49:33;;;;;;;17.83;11.43;;;10.40;99.90;;;;;;5095080;28;20178;-67
2022/12/10 09:52:05;;;;;;;15.93;11.85;;;10.50;99.90;;;;;;5094972;28;20072;-67
2022/12/10 09:54:34;;;;;;;13.35;9.88;;;10.50;99.90;;;;;;5095143;28;20052;-67
2022/12/10 09:57:01;;;;;;;15.23;10.20;;;10.50;99.90;;;;;;5095430;28;20024;-67
2022/12/10 09:59:41;;;;;;;12.52;9.63;;;10.50;99.90;;;;;;5095110;28;20502;-67
2022/12/10 10:02:27;;;;;;;13.00;9.60;;;10.50;99.90;;;;;;5095176;28;20042;-66
2022/12/10 10:05:10;;;;;;;13.95;10.10;;;10.50;99.90;;;;;;5095245;28;20078;-67
2022/12/10 10:07:41;;;;;;;;;;;10.60;99.90;;;;;;5095798;28;20033;-66
2022/12/10 10:10:20;;;;;;;13.25;9.98;;;10.60;99.90;;;;;;5095255;28;19954;-66
2022/12/10 10:12:46;;;;;;;16.67;11.38;;;10.60;99.90;;;;;;5095094;28;20547;-66
2022/12/10 10:15:20;;;;;;;15.10;11.98;;;10.60;99.90;;;;;;5095026;28;20056;-65
2022/12/10 10:17:49;;;;;;;15.95;11.68;;;10.60;99.90;;;;;;5095121;28;20088;-67
2022/12/10 10:20:15;;;;;;;16.42;13.00;;;10.60;99.90;;;;;;5095201;28;20101;-66
2022/12/10 10:22:41;;;;;;;15.60;12.45;;;10.60;99.90;;;;;;5095047;28;20032;-67
2022/12/10 10:25:18;;;;;;;18.75;13.35;;;10.60;99.90;;;;;;5094628;28;20098;-67
2022/12/10 10:27:44;;;;;;;12.93;10.63;;;10.60;99.90;;;;;;5094764;28;20367;-67
2022/12/10 10:30:16;;;;;;;14.05;10.38;;;10.70;99.90;;;;;;5094795;28;20028;-67
2022/12/10 10:32:42;;;;;;;18.57;11.90;;;10.70;99.90;;;;;;5094932;28;20085;-67
2022/12/10 10:35:30;;;;;;;14.52;10.38;;;10.70;99.90;;;;;;5094449;28;20274;-67
2022/12/10 10:38:20;;;;;;;13.35;10.45;;;10.70;99.90;;;;;;5094521;28;20046;-67
2022/12/10 10:40:50;;;;;;;16.90;10.73;;;10.70;99.90;;;;;;5094123;28;20440;-67
2022/12/10 10:43:22;;;;;;;16.02;11.00;;;10.70;99.90;;;;;;5094440;28;20028;-67
2022/12/10 10:45:57;;;;;;;19.73;13.38;;;10.70;99.90;;;;;;5094270;28;20032;-67
2022/12/10 10:48:25;;;;;;;20.02;15.48;;;10.70;99.90;;;;;;5094469;28;20385;-67
2022/12/10 10:50:51;;;;;;;22.55;17.48;;;10.70;99.90;;;;;;5094213;28;20036;-66
2022/12/10 10:53:44;;;;;;;25.67;18.67;;;10.80;99.90;;;;;;5092932;28;20043;-67
2022/12/10 10:56:16;;;;;;;27.40;19.88;;;10.80;99.90;;;;;;5090080;28;20040;-67
2022/12/10 10:59:22;;;;;;;28.05;19.17;;;10.80;99.90;;;;;;5092658;28;20478;-67
2022/12/10 11:01:52;;;;;;;29.42;19.83;;;10.80;99.90;;;;;;5093868;28;20052;-66
2022/12/10 11:04:23;;;;;;;28.75;20.77;;;10.80;99.90;;;;;;5093022;28;20036;-66
2022/12/10 11:06:54;;;;;;;30.42;22.48;;;10.80;99.90;;;;;;5094279;28;20112;-67
2022/12/10 11:09:26;;;;;;;33.25;23.50;;;10.80;99.90;;;;;;5093796;28;20040;-66
2022/12/10 11:12:02;;;;;;;31.08;22.38;;;10.80;99.90;;;;;;5094046;28;20036;-66
2022/12/10 11:14:43;;;;;;;31.48;22.45;;;10.90;99.90;;;;;;5093969;28;20028;-67
2022/12/10 11:17:14;;;;;;;13.50;10.18;;;10.90;99.90;;;;;;5093721;28;20402;-67
2022/12/10 11:20:17;;;;;;;7.00;5.03;;;10.90;99.90;;;;;;5090318;28;20589;-67
2022/12/10 11:22:55;;;;;;;8.38;3.95;;;10.90;99.90;;;;;;5089506;28;20043;-67
2022/12/10 11:25:41;;;;;;;6.15;4.60;;;10.90;99.90;;;;;;5092525;28;20040;-66
2022/12/10 11:28:24;;;;;;;5.95;3.92;;;10.90;99.90;;;;;;5093513;28;20054;-67
2022/12/10 11:31:15;;;;;;;5.07;3.80;;;10.90;99.90;;;;;;5093398;28;20382;-67
2022/12/10 11:34:01;;;;;;;4.70;3.55;;;10.90;99.90;;;;;;5092269;28;20044;-67
2022/12/10 11:36:26;;;;;;;5.35;3.70;;;11.00;99.90;;;;;;5093147;28;20077;-66
2022/12/10 11:39:10;;;;;;;5.75;4.00;;;10.90;99.90;;;;;;5093082;28;20431;-67
2022/12/10 11:41:42;;;;;;;5.70;3.83;;;10.90;99.90;;;;;;5092357;28;20035;-67
2022/12/10 11:44:10;;;;;;;6.30;4.40;;;10.90;99.90;;;;;;5090981;28;20127;-66
2022/12/10 11:46:39;;;;;;;5.20;3.45;;;10.90;99.90;;;;;;5092571;28;20044;-67
2022/12/10 11:49:10;;;;;;;6.53;3.60;;;10.90;99.90;;;;;;5092863;28;20032;-67
2022/12/10 11:51:43;;;;;;;4.90;3.15;;;10.90;99.90;;;;;;5093130;28;20570;-67
2022/12/10 11:54:41;;;;;;;6.70;3.08;;;10.90;99.90;;;;;;5092731;28;20099;-67
2022/12/10 11:57:39;;;;;;;3.70;2.42;;;10.80;99.90;;;;;;5092312;28;20025;-67
2022/12/10 12:00:21;;;;;;;3.53;2.58;;;10.80;99.90;;;;;;5072562;28;20045;-67
2022/12/10 12:02:55;;;;;;;3.42;2.20;;;10.80;99.90;;;;;;5072285;28;20458;-67
2022/12/10 12:05:35;;;;;;;2.85;1.80;;;10.80;99.90;;;;;;5072374;28;20037;-67
2022/12/10 12:08:07;;;;;;;2.03;1.45;;;10.70;99.90;;;;;;5072834;28;20417;-66
2022/12/10 12:10:39;;;;;;;1.60;1.10;;;10.70;99.90;;;;;;5072622;28;20090;-66
2022/12/10 12:13:10;;;;;;;3.53;1.27;;;10.70;99.90;;;;;;5072733;28;20048;-67
2022/12/10 12:15:44;;;;;;;2.63;1.50;;;10.60;99.90;;;;;;5072830;28;20448;-66
2022/12/10 12:18:41;;;;;;;5.80;1.83;;;10.60;99.90;;;;;;5076103;28;20374;-66
2022/12/10 12:21:16;;;;;;;4.18;1.60;;;10.60;99.90;;;;;;5076835;28;20037;-66
2022/12/10 12:24:02;;;;;;;2.05;1.20;;;10.50;99.90;;;;;;5076532;28;20505;-67
2022/12/10 12:26:37;;;;;;;3.17;1.35;;;10.50;99.90;;;;;;5076452;28;20505;-66
2022/12/10 12:29:26;;;;;;;2.17;1.30;;;10.50;99.90;;;;;;5076592;28;20024;-67
2022/12/10 12:32:03;;;;;;;2.30;1.45;;;10.40;99.90;;;;;;5076572;28;20036;-67
2022/12/10 12:34:50;;;;;;;3.67;1.27;;;10.40;99.90;;;;;;5076272;28;20036;-67
2022/12/10 12:37:21;;;;;;;1.70;1.10;;;10.40;99.90;;;;;;5076563;28;20029;-66
2022/12/10 12:40:20;;;;;;;2.83;1.33;;;10.40;99.90;;;;;;5075105;28;20376;-66
2022/12/10 12:43:16;;;;;;;2.25;1.20;;;10.40;99.90;;;;;;5075994;28;20058;-66
2022/12/10 12:45:45;;;;;;;4.35;1.02;;;10.30;99.90;;;;;;5076249;28;20402;-67
2022/12/10 12:48:17;;;;;;;2.80;1.40;;;10.40;99.90;;;;;;5082558;28;20116;-66
2022/12/10 12:51:00;;;;;;;3.40;1.40;;;10.40;99.90;;;;;;5096009;28;20032;-65
2022/12/10 12:53:26;;;;;;;3.00;1.23;;;10.40;99.90;;;;;;5096040;28;20028;-66
2022/12/10 12:56:09;;;;;;;3.08;1.35;;;10.40;99.90;;;;;;5096062;28;20028;-66
2022/12/10 12:59:01;;;;;;;2.78;1.33;;;10.30;99.90;;;;;;5096070;28;20122;-65
2022/12/10 13:01:36;;;;;;;2.35;1.35;;;10.30;99.90;;;;;;5095797;28;20063;-66